Saturday, August 18, 2018, 1:52 PM EDT
Back to Local

KHGR, Hagerstown Regional Airport

Location: Hagerstown, MD, United States Lat: 39.7
Local Time: 1:52 PM EDT (17:52 GMT) Lon: -77.733
Time Zone: US/Eastern Elev: 705 ft

Show me the last for .
Show Decoded

2018-08-18 12:53 METAR KHGR 181653Z 22011KT 10SM SCT030 BKN038 BKN048 29/21 A2988 RMK AO2 LTG
                 DSNT NE SLP122 T02940206 $ =
2018-08-18 11:53 METAR KHGR 181553Z 23009KT 10SM FEW022 28/22 A2991 RMK AO2 LTG DSNT N SLP129
                 T02830217 $ =
2018-08-18 10:53 METAR KHGR 181453Z 22006KT 10SM CLR 27/22 A2992 RMK AO2 SLP135 T02670217 58006 =
2018-08-18 09:53 METAR KHGR 181353Z 19006KT 10SM CLR 24/22 A2993 RMK AO2 SLP139 T02440217 =
2018-08-18 08:53 METAR KHGR 181253Z 19006KT 8SM FEW004 23/22 A2994 RMK AO2 SLP143 T02330217 =
2018-08-18 08:02 METAR KHGR 181202Z 17005KT 5SM BR SCT003 23/22 A2994 RMK AO2 T02280217 =
2018-08-18 07:53 METAR KHGR 181153Z 17006KT 5SM BR BKN003 23/22 A2994 RMK AO2 RAE13 SLP142 P0000
                 60000 T02280217 10239 20228 50003 =
2018-08-18 07:42 METAR KHGR 181142Z 16006KT 4SM BR BKN003 23/22 A2994 RMK AO2 RAE13 P0000
                 T02280217 =
2018-08-18 07:30 METAR KHGR 181130Z 17005KT 4SM BR SCT003 23/22 A2994 RMK AO2 RAE13 P0000
                 T02280217 =
2018-08-18 07:17 METAR KHGR 181117Z 17005KT 2 1/2SM BR BKN003 BKN120 23/22 A2994 RMK AO2 RAE13
                 P0000 T02280217 =
2018-08-18 07:07 METAR KHGR 181107Z 17005KT 3SM -RA BR FEW003 SCT075 BKN120 23/22 A2994 RMK AO2
                 P0000 T02280222 =
2018-08-18 06:53 METAR KHGR 181053Z 15005KT 5SM -RA BR FEW055 BKN120 23/22 A2994 RMK AO2 RAB35
                 SLP142 P0000 T02280217 =
2018-08-18 05:53 METAR KHGR 180953Z AUTO 18006KT 9SM CLR 23/22 A2993 RMK AO2 SLP139 T02330217 =
2018-08-18 04:53 METAR KHGR 180853Z AUTO 17005KT 8SM CLR 23/22 A2993 RMK AO2 RAE02 SLP137 P0000
                 60000 T02330222 58012 =
2018-08-18 03:53 METAR KHGR 180753Z AUTO 12003KT 7SM -RA SCT006 SCT070 BKN110 23/22 A2994 RMK AO2
                 RAE09B51 SLP140 P0000 T02280222 =
2018-08-18 03:45 METAR KHGR 180745Z AUTO 12004KT 7SM SCT006 SCT120 23/22 A2994 RMK AO2 RAE09
                 P0000 T02330222 =
2018-08-18 02:53 METAR KHGR 180653Z AUTO 15004KT 8SM -RA SCT110 23/22 A2996 RMK AO2 RAB21 SLP147
                 P0000 T02330222 =
2018-08-18 01:53 METAR KHGR 180553Z AUTO 19007KT 10SM FEW080 SCT095 24/22 A2997 RMK AO2 SLP149
                 T02390217 10250 20233 56003 =
2018-08-18 00:53 METAR KHGR 180453Z AUTO 00000KT 10SM CLR 24/22 A2997 RMK AO2 SLP150 T02390217
                 403390228 =
2018-08-17 23:53 METAR KHGR 180353Z AUTO 17004KT 10SM CLR 24/22 A2997 RMK AO2 LTG DSNT E SLP151
                 T02390217 =
2018-08-17 22:53 METAR KHGR 180253Z AUTO 14004KT 10SM FEW060 24/22 A2997 RMK AO2 LTG DSNT E
                 SLP152 T02390217 50001 =
2018-08-17 21:53 METAR KHGR 180153Z 00000KT 10SM CLR 24/22 A2998 RMK AO2 LTG DSNT SE SLP157
                 T02390217 =
2018-08-17 20:53 METAR KHGR 180053Z 19006KT 10SM CLR 24/21 A2998 RMK AO2 SLP155 T02440211 =
2018-08-17 19:53 METAR KHGR 172353Z 20007KT 10SM CLR 25/20 A2997 RMK AO2 SLP152 T02500200 10339
                 20250 58002 =
2018-08-17 18:53 METAR KHGR 172253Z 19009KT 10SM CLR 27/21 A2997 RMK AO2 SLP152 T02670211 =
2018-08-17 18:01 METAR KHGR 172201Z 21009G15KT 10SM SCT070 SCT080 28/22 A2999 RMK AO2 LTG DSNT NW
                 T02830217 =
2018-08-17 17:53 METAR KHGR 172153Z 21009G17KT 10SM VCTS BKN070 BKN080 28/22 A2998 RMK AO2 LTG
                 DSNT NW TSE2055 SLP155 T02830217 =
2018-08-17 17:01 METAR KHGR 172101Z 19009KT 10SM VCTS BKN070 OVC100 29/20 A2998 RMK AO2 LTG DSNT
                 ALQDS TSE2055 T02940200 =
2018-08-17 16:53 METAR KHGR 172053Z 18009KT 10SM TS BKN075 BKN100 29/20 A2998 RMK AO2 LTG DSNT
                 ALQDS TSE04B12 SLP153 TS S AND NW MOV E T02940200 55012 =
2018-08-17 16:18 METAR KHGR 172018Z 19015G22KT 10SM TS FEW100 31/21 A2996 RMK AO2 LTG DSNT ALQDS
                 TSE04B12 TS S AND NW MOV E T03060211 =
2018-08-17 16:10 METAR KHGR 172010Z 18014G18KT 10SM VCTS FEW044 FEW050 SCT100 33/22 A2995 RMK AO2
                 LTG DSNT ALQDS TSE04 T03280217 =
2018-08-17 15:53 METAR KHGR 171953Z 18010KT 10SM FEW044 SCT100 33/22 A2997 RMK AO2 LTG DSNT ALQDS
                 SLP150 T03280217 =
2018-08-17 14:53 METAR KHGR 171853Z 18011KT 10SM SCT100 32/22 A2999 RMK AO2 SLP158 T03220222 =
2018-08-17 13:53 METAR KHGR 171753Z 18006KT 10SM CLR 32/22 A3001 RMK AO2 SLP165 T03220217 10322
                 20233 58019 =

Support USWX by starting your Amazon purchase here.